KTRI/TRI METAR and TAF weather

Enter ICAO airport designator
Station Type Date Time Source
KTRI METAR 2019/02/18 03:53 UTC NOAA

KTRI 180353Z 11003KT 2SM RA BR OVC003 08/08 A2990 RMK AO2 CIG 002V007 SLP117 P0006 T00830083


Station Type Date Time Source
KTRI Decoded METAR 2019/02/18 03:53 UTC NOAA

TRI-CITY REGIONAL AIRPORT, TN, United States (KTRI) 36-28N 082-24W 474M
Feb 17, 2019 - 10:53 PM EST / 2019.02.18 0353 UTC
Wind: from the ESE (110 degrees) at 3 MPH (3 KT):0
Visibility: 2 mile(s):0
Sky conditions: overcast
Weather: rain; mist
Precipitation last hour: 0.06 inches
Temperature: 46.9 F (8.3 C)
Dew Point: 46.9 F (8.3 C)
Relative Humidity: 100%
Pressure (altimeter): 29.9 in. Hg (1012 hPa)
ob: KTRI 180353Z 11003KT 2SM RA BR OVC003 08/08 A2990 RMK AO2 CIG 002V007 SLP117 P0006 T00830083
cycle: 4

Station Type Date Time Source
KTRI TAF 2019/02/17 22:06 UTC NOAA

TAF
AMD KTRI 172204Z 1722/1818 02003KT 6SM -SHRA BR SCT015 BKN040
FM180200 22006KT 2SM -RA BR BKN005 OVC015
FM180600 26005KT 4SM -RA BR SCT006 OVC015
FM181000 27008KT P6SM SCT015 BKN025
FM181600 27012KT P6SM SCT250


Example: see airport list